sensor_id;sensor_type;location;lat;lon;timestamp;temperature;humidity
40746;DHT22;26454;51.164;4.488;2022-07-22T00:01:23;15.70;93.40
40746;DHT22;26454;51.164;4.488;2022-07-22T00:03:49;15.60;18.00
40746;DHT22;26454;51.164;4.488;2022-07-22T00:06:17;15.60;30.80
40746;DHT22;26454;51.164;4.488;2022-07-22T00:08:43;15.50;19.40
40746;DHT22;26454;51.164;4.488;2022-07-22T00:11:09;15.50;12.60
40746;DHT22;26454;51.164;4.488;2022-07-22T00:13:35;15.50;18.00
40746;DHT22;26454;51.164;4.488;2022-07-22T00:16:01;15.50;45.10
40746;DHT22;26454;51.164;4.488;2022-07-22T00:18:27;15.50;31.70
40746;DHT22;26454;51.164;4.488;2022-07-22T00:20:53;15.50;25.40
40746;DHT22;26454;51.164;4.488;2022-07-22T00:23:19;15.50;19.00
40746;DHT22;26454;51.164;4.488;2022-07-22T00:25:45;15.40;32.50
40746;DHT22;26454;51.164;4.488;2022-07-22T00:28:11;15.40;53.00
40746;DHT22;26454;51.164;4.488;2022-07-22T00:30:37;15.30;51.20
40746;DHT22;26454;51.164;4.488;2022-07-22T00:33:03;15.30;65.90
40746;DHT22;26454;51.164;4.488;2022-07-22T00:35:29;15.20;88.60
40746;DHT22;26454;51.164;4.488;2022-07-22T00:37:54;15.20;99.90
40746;DHT22;26454;51.164;4.488;2022-07-22T00:40:20;15.00;99.90
40746;DHT22;26454;51.164;4.488;2022-07-22T00:42:46;15.00;99.90
40746;DHT22;26454;51.164;4.488;2022-07-22T00:45:12;14.90;99.90
40746;DHT22;26454;51.164;4.488;2022-07-22T00:47:38;14.90;99.90
40746;DHT22;26454;51.164;4.488;2022-07-22T00:50:04;14.80;99.90
40746;DHT22;26454;51.164;4.488;2022-07-22T00:52:31;14.80;99.90
40746;DHT22;26454;51.164;4.488;2022-07-22T00:54:59;14.80;99.90
40746;DHT22;26454;51.164;4.488;2022-07-22T00:57:26;14.80;99.90
40746;DHT22;26454;51.164;4.488;2022-07-22T00:59:52;14.70;99.90
40746;DHT22;26454;51.164;4.488;2022-07-22T01:02:17;14.70;99.90
40746;DHT22;26454;51.164;4.488;2022-07-22T01:04:43;14.60;99.90
40746;DHT22;26454;51.164;4.488;2022-07-22T01:07:09;14.60;99.90
40746;DHT22;26454;51.164;4.488;2022-07-22T01:09:35;14.60;99.90
40746;DHT22;26454;51.164;4.488;2022-07-22T01:12:01;14.60;99.90
40746;DHT22;26454;51.164;4.488;2022-07-22T01:14:28;14.50;1.00
40746;DHT22;26454;51.164;4.488;2022-07-22T01:16:54;14.50;1.00
40746;DHT22;26454;51.164;4.488;2022-07-22T01:19:19;14.50;1.00
40746;DHT22;26454;51.164;4.488;2022-07-22T01:21:45;14.50;42.60
40746;DHT22;26454;51.164;4.488;2022-07-22T01:24:11;14.60;98.50
40746;DHT22;26454;51.164;4.488;2022-07-22T01:26:37;14.60;99.90
40746;DHT22;26454;51.164;4.488;2022-07-22T01:29:07;14.50;99.90
40746;DHT22;26454;51.164;4.488;2022-07-22T01:31:33;14.50;99.90
40746;DHT22;26454;51.164;4.488;2022-07-22T01:33:59;14.40;99.90
40746;DHT22;26454;51.164;4.488;2022-07-22T01:36:25;14.40;99.90
40746;DHT22;26454;51.164;4.488;2022-07-22T01:38:50;14.40;99.90
40746;DHT22;26454;51.164;4.488;2022-07-22T01:41:16;14.40;99.90
40746;DHT22;26454;51.164;4.488;2022-07-22T01:43:42;14.30;99.90
40746;DHT22;26454;51.164;4.488;2022-07-22T01:46:07;14.30;99.90
40746;DHT22;26454;51.164;4.488;2022-07-22T01:48:35;14.30;99.90
40746;DHT22;26454;51.164;4.488;2022-07-22T01:51:01;14.40;99.90
40746;DHT22;26454;51.164;4.488;2022-07-22T01:53:27;14.40;99.90
40746;DHT22;26454;51.164;4.488;2022-07-22T01:55:53;14.40;99.90
40746;DHT22;26454;51.164;4.488;2022-07-22T01:58:19;14.40;99.90
40746;DHT22;26454;51.164;4.488;2022-07-22T02:00:45;14.40;99.90
40746;DHT22;26454;51.164;4.488;2022-07-22T02:03:11;14.30;99.90
40746;DHT22;26454;51.164;4.488;2022-07-22T02:05:37;14.30;99.90
40746;DHT22;26454;51.164;4.488;2022-07-22T02:08:08;14.30;99.90
40746;DHT22;26454;51.164;4.488;2022-07-22T02:10:35;14.30;99.90
40746;DHT22;26454;51.164;4.488;2022-07-22T02:13:01;14.20;99.90
40746;DHT22;26454;51.164;4.488;2022-07-22T02:15:27;14.20;99.90
40746;DHT22;26454;51.164;4.488;2022-07-22T02:17:54;14.20;1.00
40746;DHT22;26454;51.164;4.488;2022-07-22T02:20:20;14.20;1.00
40746;DHT22;26454;51.164;4.488;2022-07-22T02:22:45;14.20;1.00
40746;DHT22;26454;51.164;4.488;2022-07-22T02:25:12;14.10;99.90
40746;DHT22;26454;51.164;4.488;2022-07-22T02:27:39;14.10;99.90
40746;DHT22;26454;51.164;4.488;2022-07-22T02:30:06;14.10;99.90
40746;DHT22;26454;51.164;4.488;2022-07-22T02:32:33;14.10;99.90
40746;DHT22;26454;51.164;4.488;2022-07-22T02:34:58;14.00;99.90
40746;DHT22;26454;51.164;4.488;2022-07-22T02:37:24;14.00;99.90
40746;DHT22;26454;51.164;4.488;2022-07-22T02:39:50;14.00;99.90
40746;DHT22;26454;51.164;4.488;2022-07-22T02:42:16;14.00;1.00
40746;DHT22;26454;51.164;4.488;2022-07-22T02:44:41;13.90;1.00
40746;DHT22;26454;51.164;4.488;2022-07-22T02:47:07;13.90;1.00
40746;DHT22;26454;51.164;4.488;2022-07-22T02:49:33;13.90;1.00
40746;DHT22;26454;51.164;4.488;2022-07-22T02:51:58;13.90;1.00
40746;DHT22;26454;51.164;4.488;2022-07-22T02:54:24;13.90;11.10
40746;DHT22;26454;51.164;4.488;2022-07-22T02:56:50;13.80;1.00
40746;DHT22;26454;51.164;4.488;2022-07-22T02:59:16;13.80;1.00
40746;DHT22;26454;51.164;4.488;2022-07-22T03:01:41;13.80;1.00
40746;DHT22;26454;51.164;4.488;2022-07-22T03:04:07;13.70;1.00
40746;DHT22;26454;51.164;4.488;2022-07-22T03:06:33;13.70;1.00
40746;DHT22;26454;51.164;4.488;2022-07-22T03:08:59;13.70;11.70
40746;DHT22;26454;51.164;4.488;2022-07-22T03:11:24;13.70;12.80
40746;DHT22;26454;51.164;4.488;2022-07-22T03:13:50;13.70;38.00
40746;DHT22;26454;51.164;4.488;2022-07-22T03:16:15;13.70;63.60
40746;DHT22;26454;51.164;4.488;2022-07-22T03:18:41;13.70;77.90
40746;DHT22;26454;51.164;4.488;2022-07-22T03:21:07;13.70;74.40
40746;DHT22;26454;51.164;4.488;2022-07-22T03:23:32;13.70;54.90
40746;DHT22;26454;51.164;4.488;2022-07-22T03:25:58;13.60;38.50
40746;DHT22;26454;51.164;4.488;2022-07-22T03:28:24;13.60;54.80
40746;DHT22;26454;51.164;4.488;2022-07-22T03:30:50;13.60;81.10
40746;DHT22;26454;51.164;4.488;2022-07-22T03:33:16;13.60;98.70
40746;DHT22;26454;51.164;4.488;2022-07-22T03:35:41;13.60;99.10
40746;DHT22;26454;51.164;4.488;2022-07-22T03:38:08;13.60;99.90
40746;DHT22;26454;51.164;4.488;2022-07-22T03:40:33;13.60;99.90
40746;DHT22;26454;51.164;4.488;2022-07-22T03:42:59;13.50;99.90
40746;DHT22;26454;51.164;4.488;2022-07-22T03:45:25;13.50;99.90
40746;DHT22;26454;51.164;4.488;2022-07-22T03:47:51;13.50;99.90
40746;DHT22;26454;51.164;4.488;2022-07-22T03:50:20;13.50;99.90
40746;DHT22;26454;51.164;4.488;2022-07-22T03:52:46;13.40;99.90
40746;DHT22;26454;51.164;4.488;2022-07-22T03:55:11;13.40;99.90
40746;DHT22;26454;51.164;4.488;2022-07-22T03:57:37;13.40;99.90
40746;DHT22;26454;51.164;4.488;2022-07-22T04:00:04;13.40;99.90
40746;DHT22;26454;51.164;4.488;2022-07-22T04:02:30;13.30;99.90
40746;DHT22;26454;51.164;4.488;2022-07-22T04:04:56;13.40;99.90
40746;DHT22;26454;51.164;4.488;2022-07-22T04:07:21;13.40;99.90
40746;DHT22;26454;51.164;4.488;2022-07-22T04:09:47;13.40;99.90
40746;DHT22;26454;51.164;4.488;2022-07-22T04:12:13;13.40;99.90
40746;DHT22;26454;51.164;4.488;2022-07-22T04:14:38;13.40;99.90
40746;DHT22;26454;51.164;4.488;2022-07-22T04:17:04;13.50;99.90
40746;DHT22;26454;51.164;4.488;2022-07-22T04:19:30;13.50;99.90
40746;DHT22;26454;51.164;4.488;2022-07-22T04:21:55;13.50;99.90
40746;DHT22;26454;51.164;4.488;2022-07-22T04:24:21;13.50;99.90
40746;DHT22;26454;51.164;4.488;2022-07-22T04:26:47;13.50;1.00
40746;DHT22;26454;51.164;4.488;2022-07-22T04:29:12;13.60;1.00
40746;DHT22;26454;51.164;4.488;2022-07-22T04:31:38;13.60;1.00
40746;DHT22;26454;51.164;4.488;2022-07-22T04:34:04;13.60;1.00
40746;DHT22;26454;51.164;4.488;2022-07-22T04:36:29;13.60;1.00
40746;DHT22;26454;51.164;4.488;2022-07-22T04:38:55;13.70;1.00
40746;DHT22;26454;51.164;4.488;2022-07-22T04:41:21;13.70;23.20
40746;DHT22;26454;51.164;4.488;2022-07-22T04:43:47;13.70;56.20
40746;DHT22;26454;51.164;4.488;2022-07-22T04:46:13;13.80;90.50
40746;DHT22;26454;51.164;4.488;2022-07-22T04:48:39;13.80;99.90
40746;DHT22;26454;51.164;4.488;2022-07-22T04:51:04;13.90;99.90
40746;DHT22;26454;51.164;4.488;2022-07-22T04:53:30;13.90;99.90
40746;DHT22;26454;51.164;4.488;2022-07-22T04:55:56;14.00;99.90
40746;DHT22;26454;51.164;4.488;2022-07-22T04:58:22;14.10;99.90
40746;DHT22;26454;51.164;4.488;2022-07-22T05:00:48;14.20;99.90
40746;DHT22;26454;51.164;4.488;2022-07-22T05:03:14;14.20;99.90
40746;DHT22;26454;51.164;4.488;2022-07-22T05:05:39;14.30;99.90
40746;DHT22;26454;51.164;4.488;2022-07-22T05:08:05;14.30;99.90
40746;DHT22;26454;51.164;4.488;2022-07-22T05:10:32;14.40;99.90
40746;DHT22;26454;51.164;4.488;2022-07-22T05:12:58;14.50;99.90
40746;DHT22;26454;51.164;4.488;2022-07-22T05:15:24;14.50;99.90
40746;DHT22;26454;51.164;4.488;2022-07-22T05:17:50;14.50;99.90
40746;DHT22;26454;51.164;4.488;2022-07-22T05:20:16;14.60;99.90
40746;DHT22;26454;51.164;4.488;2022-07-22T05:22:42;14.60;99.90
40746;DHT22;26454;51.164;4.488;2022-07-22T05:25:08;14.70;74.70
40746;DHT22;26454;51.164;4.488;2022-07-22T05:27:35;14.70;1.00
40746;DHT22;26454;51.164;4.488;2022-07-22T05:30:01;14.80;1.00
40746;DHT22;26454;51.164;4.488;2022-07-22T05:32:27;14.80;99.90
40746;DHT22;26454;51.164;4.488;2022-07-22T05:34:52;14.80;99.90
40746;DHT22;26454;51.164;4.488;2022-07-22T05:37:18;14.90;99.90
40746;DHT22;26454;51.164;4.488;2022-07-22T05:39:44;15.00;33.40
40746;DHT22;26454;51.164;4.488;2022-07-22T05:42:10;15.00;1.00
40746;DHT22;26454;51.164;4.488;2022-07-22T05:44:35;15.10;99.90
40746;DHT22;26454;51.164;4.488;2022-07-22T05:47:01;15.10;99.90
40746;DHT22;26454;51.164;4.488;2022-07-22T05:49:26;15.10;99.90
40746;DHT22;26454;51.164;4.488;2022-07-22T05:51:53;15.20;99.90
40746;DHT22;26454;51.164;4.488;2022-07-22T05:54:19;15.30;59.30
40746;DHT22;26454;51.164;4.488;2022-07-22T05:56:45;15.30;5.90
40746;DHT22;26454;51.164;4.488;2022-07-22T05:59:16;15.40;1.00
40746;DHT22;26454;51.164;4.488;2022-07-22T06:01:42;15.50;1.00
40746;DHT22;26454;51.164;4.488;2022-07-22T06:04:07;15.60;99.90
40746;DHT22;26454;51.164;4.488;2022-07-22T06:06:33;15.70;99.90
40746;DHT22;26454;51.164;4.488;2022-07-22T06:08:59;15.80;99.90
40746;DHT22;26454;51.164;4.488;2022-07-22T06:11:24;15.80;99.90
40746;DHT22;26454;51.164;4.488;2022-07-22T06:13:50;15.90;99.90
40746;DHT22;26454;51.164;4.488;2022-07-22T06:16:16;15.90;99.90
40746;DHT22;26454;51.164;4.488;2022-07-22T06:18:41;16.00;99.90
40746;DHT22;26454;51.164;4.488;2022-07-22T06:21:07;16.00;99.90
40746;DHT22;26454;51.164;4.488;2022-07-22T06:23:34;16.10;99.90
40746;DHT22;26454;51.164;4.488;2022-07-22T06:26:00;16.20;85.00
40746;DHT22;26454;51.164;4.488;2022-07-22T06:28:26;16.30;46.60
40746;DHT22;26454;51.164;4.488;2022-07-22T06:30:51;16.40;1.00
40746;DHT22;26454;51.164;4.488;2022-07-22T06:33:17;16.60;1.00
40746;DHT22;26454;51.164;4.488;2022-07-22T06:35:43;16.60;99.90
40746;DHT22;26454;51.164;4.488;2022-07-22T06:38:09;16.70;99.90
40746;DHT22;26454;51.164;4.488;2022-07-22T06:40:35;16.90;99.90
40746;DHT22;26454;51.164;4.488;2022-07-22T06:43:00;17.10;99.90
40746;DHT22;26454;51.164;4.488;2022-07-22T06:45:26;17.20;99.90
40746;DHT22;26454;51.164;4.488;2022-07-22T06:47:52;17.30;54.90
40746;DHT22;26454;51.164;4.488;2022-07-22T06:50:17;17.40;12.30
40746;DHT22;26454;51.164;4.488;2022-07-22T06:52:43;17.60;1.00
40746;DHT22;26454;51.164;4.488;2022-07-22T06:55:09;17.60;99.90
40746;DHT22;26454;51.164;4.488;2022-07-22T06:57:35;17.50;99.90
40746;DHT22;26454;51.164;4.488;2022-07-22T07:00:03;17.50;99.90
40746;DHT22;26454;51.164;4.488;2022-07-22T07:02:29;17.50;99.90
40746;DHT22;26454;51.164;4.488;2022-07-22T07:04:55;17.70;99.90
40746;DHT22;26454;51.164;4.488;2022-07-22T07:07:20;17.70;99.90
40746;DHT22;26454;51.164;4.488;2022-07-22T07:09:46;17.80;99.90
40746;DHT22;26454;51.164;4.488;2022-07-22T07:12:12;17.80;99.90
40746;DHT22;26454;51.164;4.488;2022-07-22T07:14:37;17.90;99.90
40746;DHT22;26454;51.164;4.488;2022-07-22T07:17:03;18.00;99.90
40746;DHT22;26454;51.164;4.488;2022-07-22T07:19:29;18.10;99.90
40746;DHT22;26454;51.164;4.488;2022-07-22T07:21:54;18.20;99.90
40746;DHT22;26454;51.164;4.488;2022-07-22T07:24:20;18.20;99.90
40746;DHT22;26454;51.164;4.488;2022-07-22T07:26:45;18.30;99.90
40746;DHT22;26454;51.164;4.488;2022-07-22T07:29:11;18.30;99.90
40746;DHT22;26454;51.164;4.488;2022-07-22T07:31:37;18.40;99.90
40746;DHT22;26454;51.164;4.488;2022-07-22T07:34:02;18.40;99.90
40746;DHT22;26454;51.164;4.488;2022-07-22T07:36:28;18.50;99.90
40746;DHT22;26454;51.164;4.488;2022-07-22T07:38:54;18.60;99.90
40746;DHT22;26454;51.164;4.488;2022-07-22T07:41:20;18.70;99.90
40746;DHT22;26454;51.164;4.488;2022-07-22T07:43:46;18.70;99.90
40746;DHT22;26454;51.164;4.488;2022-07-22T07:46:11;18.70;78.90
40746;DHT22;26454;51.164;4.488;2022-07-22T07:48:37;18.80;48.10
40746;DHT22;26454;51.164;4.488;2022-07-22T07:51:03;18.70;59.10
40746;DHT22;26454;51.164;4.488;2022-07-22T07:53:28;18.80;85.10
40746;DHT22;26454;51.164;4.488;2022-07-22T07:55:54;19.00;94.00
40746;DHT22;26454;51.164;4.488;2022-07-22T07:58:20;19.40;64.90
40746;DHT22;26454;51.164;4.488;2022-07-22T08:00:45;19.50;1.00
40746;DHT22;26454;51.164;4.488;2022-07-22T08:03:11;19.70;1.00
40746;DHT22;26454;51.164;4.488;2022-07-22T08:05:37;19.70;1.00
40746;DHT22;26454;51.164;4.488;2022-07-22T08:08:05;19.80;1.00
40746;DHT22;26454;51.164;4.488;2022-07-22T08:10:31;19.80;99.90
40746;DHT22;26454;51.164;4.488;2022-07-22T08:12:57;19.80;1.00
40746;DHT22;26454;51.164;4.488;2022-07-22T08:15:24;19.60;1.00
40746;DHT22;26454;51.164;4.488;2022-07-22T08:17:49;19.50;1.00
40746;DHT22;26454;51.164;4.488;2022-07-22T08:20:16;19.40;1.00
40746;DHT22;26454;51.164;4.488;2022-07-22T08:22:41;19.40;6.70
40746;DHT22;26454;51.164;4.488;2022-07-22T08:25:07;19.50;1.00
40746;DHT22;26454;51.164;4.488;2022-07-22T08:30:00;19.50;11.00
40746;DHT22;26454;51.164;4.488;2022-07-22T08:32:29;19.40;27.50
40746;DHT22;26454;51.164;4.488;2022-07-22T08:34:55;19.60;14.90
40746;DHT22;26454;51.164;4.488;2022-07-22T08:37:21;19.60;29.30
40746;DHT22;26454;51.164;4.488;2022-07-22T08:39:46;19.60;66.60
40746;DHT22;26454;51.164;4.488;2022-07-22T08:42:12;19.70;69.90
40746;DHT22;26454;51.164;4.488;2022-07-22T08:44:39;19.90;56.20
40746;DHT22;26454;51.164;4.488;2022-07-22T08:47:05;19.90;22.70
40746;DHT22;26454;51.164;4.488;2022-07-22T08:49:31;20.00;17.70
40746;DHT22;26454;51.164;4.488;2022-07-22T08:51:57;20.30;39.40
40746;DHT22;26454;51.164;4.488;2022-07-22T08:54:23;20.20;25.10
40746;DHT22;26454;51.164;4.488;2022-07-22T08:56:50;20.20;42.90
40746;DHT22;26454;51.164;4.488;2022-07-22T08:59:17;20.40;32.10
40746;DHT22;26454;51.164;4.488;2022-07-22T09:02:03;20.40;18.40
40746;DHT22;26454;51.164;4.488;2022-07-22T09:06:57;20.30;6.80
40746;DHT22;26454;51.164;4.488;2022-07-22T09:09:32;20.30;1.00
40746;DHT22;26454;51.164;4.488;2022-07-22T09:12:06;20.20;1.00
40746;DHT22;26454;51.164;4.488;2022-07-22T09:14:50;19.90;1.00
40746;DHT22;26454;51.164;4.488;2022-07-22T09:17:29;19.90;12.00
40746;DHT22;26454;51.164;4.488;2022-07-22T09:19:57;19.90;13.50
40746;DHT22;26454;51.164;4.488;2022-07-22T09:22:32;20.40;12.80
40746;DHT22;26454;51.164;4.488;2022-07-22T09:25:16;20.20;1.00
40746;DHT22;26454;51.164;4.488;2022-07-22T09:27:42;20.20;1.00
40746;DHT22;26454;51.164;4.488;2022-07-22T09:30:13;20.30;1.00
40746;DHT22;26454;51.164;4.488;2022-07-22T09:32:41;20.40;1.00
40746;DHT22;26454;51.164;4.488;2022-07-22T09:35:08;20.40;1.00
40746;DHT22;26454;51.164;4.488;2022-07-22T09:40:19;20.30;1.00
40746;DHT22;26454;51.164;4.488;2022-07-22T09:42:55;20.40;1.00
40746;DHT22;26454;51.164;4.488;2022-07-22T09:45:23;20.40;1.00
40746;DHT22;26454;51.164;4.488;2022-07-22T09:47:49;20.40;1.00
40746;DHT22;26454;51.164;4.488;2022-07-22T09:50:22;20.50;1.00
40746;DHT22;26454;51.164;4.488;2022-07-22T09:52:49;20.70;1.00
40746;DHT22;26454;51.164;4.488;2022-07-22T09:55:17;20.80;1.00
